Brockway, MT (59214)

00:18 MST le 23 novembre 2014 (GMT -0700)
Dawson Community | Change Station
CLOSE
Current Station
Aéroport
Location: Glendive,
Altitude: 2457 ft
Stations météo à proximité
Avis météorologiques actifs: Winter Weather Advisory, Lake Wind Advisory

Alt. 2457 ft 47.14 °N, 104.81 °W | Updated 23 minutes ago

Nuageux
Nuageux
36 ° F
Paraît 24 ° F
N
24
Vent Variable Vent de Ouest
Gusts 33 mph

Aujourd'hui
Haut(e) -- | Bas -- ° F
--% Risque de précip.
Hier
Haut(e) -- | Bas -- ° F
Precip. -- pouce
7:18 AM 4:20 PM
Nouvelle lune, 1% visible
Pression 29.44 pouce
Visibilité 10.0 Miles terrestres
Nuages Ciel dégagé
Refroidissement éolien 24 ° F
Point de rosée 30 ° F
Humidité 81%
Précipitations 0.00 pouce
Profondeur de la couche neigeuse Non disponible.
UV 0 sur 12
Pollen .10 sur 12
Qualité de l'air Non disponible.
Flu Activity Non disponible.
METAR KGDV 230655Z AUTO 26021G29KT 10SM CLR 02/M01 A2944 RMK AO1

More Conditions Fewer Conditions

Pression 29.44 pouce
Visibilité 10.0 Miles terrestres
Nuages Ciel dégagé
Refroidissement éolien 24 ° F
Point de rosée 30 ° F
Humidité 81%
Précipitations 0.00 pouce
Profondeur de la couche neigeuse Non disponible.
UV 0 sur 12
Pollen .10 sur 12
Qualité de l'air Non disponible.
Flu Activity Non disponible.
METAR KGDV 230655Z AUTO 26021G29KT 10SM CLR 02/M01 A2944 RMK AO1

More Conditions Fewer Conditions

10-Day Weather Forecast

Almanac

Astronomie

Nov. 23, 2014 Lever Coucher
Temps réel
Crépuscule civil
Crépuscule nautique
Crépuscule astronomique
Lune
Durée de lumière visible
Longueur du jour
Tomorrow will be .
, % of the Moon is Illuminated

Extrêmes aujourd'hui

State Highs State Lows

Community

WunderPhotos

Upload Photos

1,773,024 Photos téléchargées !

WunderBlogs® & News

Nearby

Qualité de l'air

  Qualité de l'air Indice de la qualité de l'air Polluant
Not available.

Épaisseur de neige

Station Depth Altitude

Activité sismique

Ville Distance Mag. Time & Date
Minimum magnitude displayed is 2.5.

Températures des eaux côtières

Lieu Température

Stations météo à proximité